sensor_id;sensor_type;location;lat;lon;timestamp;P1;durP1;ratioP1;P2;durP2;ratioP2
20080;SDS011;10200;49.232;9.222;2023-06-10T00:01:51;7.38;;;5.90;;
20080;SDS011;10200;49.232;9.222;2023-06-10T00:04:20;5.25;;;4.72;;
20080;SDS011;10200;49.232;9.222;2023-06-10T00:06:46;7.35;;;5.43;;
20080;SDS011;10200;49.232;9.222;2023-06-10T00:09:14;8.32;;;5.55;;
20080;SDS011;10200;49.232;9.222;2023-06-10T00:11:40;5.78;;;5.15;;
20080;SDS011;10200;49.232;9.222;2023-06-10T00:14:06;8.38;;;5.70;;
20080;SDS011;10200;49.232;9.222;2023-06-10T00:16:32;5.82;;;5.32;;
20080;SDS011;10200;49.232;9.222;2023-06-10T00:18:59;7.88;;;4.78;;
20080;SDS011;10200;49.232;9.222;2023-06-10T00:21:27;5.18;;;4.57;;
20080;SDS011;10200;49.232;9.222;2023-06-10T00:23:53;9.57;;;4.97;;
20080;SDS011;10200;49.232;9.222;2023-06-10T00:26:20;6.47;;;5.50;;
20080;SDS011;10200;49.232;9.222;2023-06-10T00:28:49;6.88;;;4.95;;
20080;SDS011;10200;49.232;9.222;2023-06-10T00:31:15;8.93;;;5.10;;
20080;SDS011;10200;49.232;9.222;2023-06-10T00:33:41;5.35;;;4.85;;
20080;SDS011;10200;49.232;9.222;2023-06-10T00:36:06;6.25;;;5.28;;
20080;SDS011;10200;49.232;9.222;2023-06-10T00:38:32;5.88;;;5.30;;
20080;SDS011;10200;49.232;9.222;2023-06-10T00:40:58;7.15;;;5.55;;
20080;SDS011;10200;49.232;9.222;2023-06-10T00:43:24;6.07;;;5.45;;
20080;SDS011;10200;49.232;9.222;2023-06-10T00:45:49;7.28;;;6.40;;
20080;SDS011;10200;49.232;9.222;2023-06-10T00:48:16;6.70;;;5.80;;
20080;SDS011;10200;49.232;9.222;2023-06-10T00:50:42;6.22;;;5.60;;
20080;SDS011;10200;49.232;9.222;2023-06-10T00:53:08;6.45;;;5.30;;
20080;SDS011;10200;49.232;9.222;2023-06-10T00:55:35;8.27;;;6.03;;
20080;SDS011;10200;49.232;9.222;2023-06-10T00:58:01;9.20;;;5.93;;
20080;SDS011;10200;49.232;9.222;2023-06-10T01:00:28;8.38;;;6.30;;
20080;SDS011;10200;49.232;9.222;2023-06-10T01:02:54;7.70;;;6.20;;
20080;SDS011;10200;49.232;9.222;2023-06-10T01:05:20;8.02;;;6.65;;
20080;SDS011;10200;49.232;9.222;2023-06-10T01:10:41;6.20;;;5.60;;
20080;SDS011;10200;49.232;9.222;2023-06-10T01:13:11;7.10;;;5.03;;
20080;SDS011;10200;49.232;9.222;2023-06-10T01:15:38;7.30;;;5.38;;
20080;SDS011;10200;49.232;9.222;2023-06-10T01:18:06;10.55;;;5.70;;
20080;SDS011;10200;49.232;9.222;2023-06-10T01:20:40;6.55;;;5.20;;
20080;SDS011;10200;49.232;9.222;2023-06-10T01:23:08;6.07;;;5.38;;
20080;SDS011;10200;49.232;9.222;2023-06-10T01:25:38;7.60;;;5.47;;
20080;SDS011;10200;49.232;9.222;2023-06-10T01:33:58;6.40;;;5.07;;
20080;SDS011;10200;49.232;9.222;2023-06-10T01:36:25;9.10;;;5.18;;
20080;SDS011;10200;49.232;9.222;2023-06-10T01:38:51;6.03;;;5.30;;
20080;SDS011;10200;49.232;9.222;2023-06-10T01:41:19;6.30;;;5.55;;
20080;SDS011;10200;49.232;9.222;2023-06-10T01:43:46;6.60;;;4.80;;
20080;SDS011;10200;49.232;9.222;2023-06-10T01:46:12;4.97;;;4.47;;
20080;SDS011;10200;49.232;9.222;2023-06-10T01:48:38;6.28;;;4.75;;
20080;SDS011;10200;49.232;9.222;2023-06-10T01:51:04;6.10;;;5.28;;
20080;SDS011;10200;49.232;9.222;2023-06-10T01:53:30;5.35;;;4.85;;
20080;SDS011;10200;49.232;9.222;2023-06-10T01:55:56;8.77;;;5.30;;
20080;SDS011;10200;49.232;9.222;2023-06-10T01:58:21;6.35;;;5.20;;
20080;SDS011;10200;49.232;9.222;2023-06-10T02:00:47;5.13;;;4.63;;
20080;SDS011;10200;49.232;9.222;2023-06-10T02:03:12;5.60;;;4.87;;
20080;SDS011;10200;49.232;9.222;2023-06-10T02:05:38;6.22;;;4.43;;
20080;SDS011;10200;49.232;9.222;2023-06-10T02:08:04;4.73;;;4.23;;
20080;SDS011;10200;49.232;9.222;2023-06-10T02:10:30;6.00;;;5.32;;
20080;SDS011;10200;49.232;9.222;2023-06-10T02:12:55;5.47;;;4.80;;
20080;SDS011;10200;49.232;9.222;2023-06-10T02:15:21;6.33;;;5.33;;
20080;SDS011;10200;49.232;9.222;2023-06-10T02:17:47;9.27;;;5.72;;
20080;SDS011;10200;49.232;9.222;2023-06-10T02:20:14;5.33;;;4.70;;
20080;SDS011;10200;49.232;9.222;2023-06-10T02:22:40;5.97;;;5.37;;
20080;SDS011;10200;49.232;9.222;2023-06-10T02:25:05;5.30;;;4.80;;
20080;SDS011;10200;49.232;9.222;2023-06-10T02:27:31;6.53;;;5.57;;
20080;SDS011;10200;49.232;9.222;2023-06-10T02:29:57;6.83;;;5.03;;
20080;SDS011;10200;49.232;9.222;2023-06-10T02:32:23;9.50;;;5.13;;
20080;SDS011;10200;49.232;9.222;2023-06-10T02:34:48;5.60;;;4.60;;
20080;SDS011;10200;49.232;9.222;2023-06-10T02:37:15;18.57;;;5.50;;
20080;SDS011;10200;49.232;9.222;2023-06-10T02:39:41;6.57;;;5.40;;
20080;SDS011;10200;49.232;9.222;2023-06-10T02:42:07;5.90;;;5.40;;
20080;SDS011;10200;49.232;9.222;2023-06-10T02:44:33;5.30;;;4.80;;
20080;SDS011;10200;49.232;9.222;2023-06-10T02:46:59;5.60;;;5.10;;
20080;SDS011;10200;49.232;9.222;2023-06-10T02:49:26;5.07;;;4.57;;
20080;SDS011;10200;49.232;9.222;2023-06-10T02:51:54;8.00;;;5.23;;
20080;SDS011;10200;49.232;9.222;2023-06-10T02:54:21;7.70;;;5.30;;
20080;SDS011;10200;49.232;9.222;2023-06-10T02:56:48;7.87;;;5.40;;
20080;SDS011;10200;49.232;9.222;2023-06-10T02:59:14;7.67;;;5.20;;
20080;SDS011;10200;49.232;9.222;2023-06-10T03:01:40;5.30;;;4.80;;
20080;SDS011;10200;49.232;9.222;2023-06-10T03:04:06;5.90;;;5.40;;
20080;SDS011;10200;49.232;9.222;2023-06-10T03:06:32;5.73;;;5.20;;
20080;SDS011;10200;49.232;9.222;2023-06-10T03:09:01;10.67;;;4.97;;
20080;SDS011;10200;49.232;9.222;2023-06-10T03:11:29;5.67;;;4.37;;
20080;SDS011;10200;49.232;9.222;2023-06-10T03:13:54;6.97;;;5.07;;
20080;SDS011;10200;49.232;9.222;2023-06-10T03:16:21;5.40;;;4.67;;
20080;SDS011;10200;49.232;9.222;2023-06-10T03:18:46;5.73;;;5.10;;
20080;SDS011;10200;49.232;9.222;2023-06-10T03:21:12;5.90;;;4.73;;
20080;SDS011;10200;49.232;9.222;2023-06-10T03:23:38;5.60;;;4.90;;
20080;SDS011;10200;49.232;9.222;2023-06-10T03:26:04;6.47;;;5.53;;
20080;SDS011;10200;49.232;9.222;2023-06-10T03:28:33;7.97;;;5.17;;
20080;SDS011;10200;49.232;9.222;2023-06-10T03:30:58;10.00;;;5.40;;
20080;SDS011;10200;49.232;9.222;2023-06-10T03:33:24;6.13;;;5.30;;
20080;SDS011;10200;49.232;9.222;2023-06-10T03:35:51;5.50;;;4.80;;
20080;SDS011;10200;49.232;9.222;2023-06-10T03:38:16;6.10;;;4.87;;
20080;SDS011;10200;49.232;9.222;2023-06-10T03:40:42;5.63;;;5.07;;
20080;SDS011;10200;49.232;9.222;2023-06-10T03:43:08;8.37;;;5.43;;
20080;SDS011;10200;49.232;9.222;2023-06-10T03:45:33;5.33;;;4.83;;
20080;SDS011;10200;49.232;9.222;2023-06-10T03:47:59;5.67;;;5.07;;
20080;SDS011;10200;49.232;9.222;2023-06-10T03:50:26;5.77;;;5.07;;
20080;SDS011;10200;49.232;9.222;2023-06-10T03:52:51;6.17;;;5.57;;
20080;SDS011;10200;49.232;9.222;2023-06-10T03:55:17;7.20;;;5.27;;
20080;SDS011;10200;49.232;9.222;2023-06-10T03:57:43;6.87;;;5.13;;
20080;SDS011;10200;49.232;9.222;2023-06-10T04:00:09;6.07;;;4.90;;
20080;SDS011;10200;49.232;9.222;2023-06-10T04:02:36;6.30;;;5.70;;
20080;SDS011;10200;49.232;9.222;2023-06-10T04:05:02;6.57;;;5.03;;
20080;SDS011;10200;49.232;9.222;2023-06-10T04:07:28;7.17;;;5.07;;
20080;SDS011;10200;49.232;9.222;2023-06-10T04:09:55;6.63;;;5.47;;
20080;SDS011;10200;49.232;9.222;2023-06-10T04:12:21;6.73;;;4.80;;
20080;SDS011;10200;49.232;9.222;2023-06-10T04:14:46;7.27;;;5.40;;
20080;SDS011;10200;49.232;9.222;2023-06-10T04:17:12;6.53;;;4.73;;
20080;SDS011;10200;49.232;9.222;2023-06-10T04:19:38;6.20;;;5.27;;
20080;SDS011;10200;49.232;9.222;2023-06-10T04:22:03;6.17;;;5.33;;
20080;SDS011;10200;49.232;9.222;2023-06-10T04:24:30;7.60;;;6.20;;
20080;SDS011;10200;49.232;9.222;2023-06-10T04:26:55;6.20;;;5.50;;
20080;SDS011;10200;49.232;9.222;2023-06-10T04:29:21;5.90;;;5.30;;
20080;SDS011;10200;49.232;9.222;2023-06-10T04:31:47;6.00;;;5.37;;
20080;SDS011;10200;49.232;9.222;2023-06-10T04:34:13;6.30;;;5.20;;
20080;SDS011;10200;49.232;9.222;2023-06-10T04:36:39;6.10;;;5.25;;
20080;SDS011;10200;49.232;9.222;2023-06-10T04:39:05;6.25;;;5.40;;
20080;SDS011;10200;49.232;9.222;2023-06-10T04:41:30;7.28;;;5.10;;
20080;SDS011;10200;49.232;9.222;2023-06-10T04:43:56;6.32;;;5.45;;
20080;SDS011;10200;49.232;9.222;2023-06-10T04:46:22;6.90;;;5.80;;
20080;SDS011;10200;49.232;9.222;2023-06-10T04:48:49;6.03;;;5.43;;
20080;SDS011;10200;49.232;9.222;2023-06-10T04:51:14;6.55;;;4.95;;
20080;SDS011;10200;49.232;9.222;2023-06-10T04:53:40;8.20;;;6.03;;
20080;SDS011;10200;49.232;9.222;2023-06-10T04:56:06;6.38;;;5.18;;
20080;SDS011;10200;49.232;9.222;2023-06-10T04:58:32;6.75;;;5.20;;
20080;SDS011;10200;49.232;9.222;2023-06-10T05:00:58;6.43;;;5.25;;
20080;SDS011;10200;49.232;9.222;2023-06-10T05:03:24;7.15;;;5.13;;
20080;SDS011;10200;49.232;9.222;2023-06-10T05:05:50;7.47;;;5.47;;
20080;SDS011;10200;49.232;9.222;2023-06-10T05:08:16;6.10;;;5.50;;
20080;SDS011;10200;49.232;9.222;2023-06-10T05:10:41;7.32;;;5.05;;
20080;SDS011;10200;49.232;9.222;2023-06-10T05:13:07;5.72;;;5.03;;
20080;SDS011;10200;49.232;9.222;2023-06-10T05:15:33;6.03;;;5.30;;
20080;SDS011;10200;49.232;9.222;2023-06-10T05:18:02;5.90;;;5.30;;
20080;SDS011;10200;49.232;9.222;2023-06-10T05:20:27;5.35;;;4.85;;
20080;SDS011;10200;49.232;9.222;2023-06-10T05:22:54;7.78;;;4.95;;
20080;SDS011;10200;49.232;9.222;2023-06-10T05:25:19;6.22;;;5.63;;
20080;SDS011;10200;49.232;9.222;2023-06-10T05:27:45;6.72;;;5.55;;
20080;SDS011;10200;49.232;9.222;2023-06-10T05:30:11;7.45;;;5.63;;
20080;SDS011;10200;49.232;9.222;2023-06-10T05:32:37;6.40;;;5.18;;
20080;SDS011;10200;49.232;9.222;2023-06-10T05:35:02;5.88;;;5.07;;
20080;SDS011;10200;49.232;9.222;2023-06-10T05:37:29;8.32;;;4.85;;
20080;SDS011;10200;49.232;9.222;2023-06-10T05:39:55;5.55;;;4.80;;
20080;SDS011;10200;49.232;9.222;2023-06-10T05:42:20;5.10;;;4.57;;
20080;SDS011;10200;49.232;9.222;2023-06-10T05:44:46;6.35;;;5.75;;
20080;SDS011;10200;49.232;9.222;2023-06-10T05:47:12;6.32;;;5.20;;
20080;SDS011;10200;49.232;9.222;2023-06-10T05:49:37;6.25;;;5.53;;
20080;SDS011;10200;49.232;9.222;2023-06-10T05:52:03;6.55;;;5.30;;
20080;SDS011;10200;49.232;9.222;2023-06-10T05:54:29;6.07;;;5.55;;
20080;SDS011;10200;49.232;9.222;2023-06-10T05:56:54;5.82;;;4.90;;
20080;SDS011;10200;49.232;9.222;2023-06-10T05:59:20;5.38;;;4.88;;
20080;SDS011;10200;49.232;9.222;2023-06-10T06:01:47;5.75;;;5.10;;
20080;SDS011;10200;49.232;9.222;2023-06-10T06:04:13;5.45;;;4.95;;
20080;SDS011;10200;49.232;9.222;2023-06-10T06:06:39;7.75;;;5.85;;
20080;SDS011;10200;49.232;9.222;2023-06-10T06:09:05;5.95;;;5.10;;
20080;SDS011;10200;49.232;9.222;2023-06-10T06:11:31;7.32;;;5.25;;
20080;SDS011;10200;49.232;9.222;2023-06-10T06:13:56;6.18;;;5.07;;
20080;SDS011;10200;49.232;9.222;2023-06-10T06:16:22;5.22;;;4.72;;
20080;SDS011;10200;49.232;9.222;2023-06-10T06:18:48;5.10;;;4.60;;
20080;SDS011;10200;49.232;9.222;2023-06-10T06:21:13;7.35;;;5.40;;
20080;SDS011;10200;49.232;9.222;2023-06-10T06:23:39;9.90;;;4.68;;
20080;SDS011;10200;49.232;9.222;2023-06-10T06:26:05;5.20;;;4.70;;
20080;SDS011;10200;49.232;9.222;2023-06-10T06:28:30;5.55;;;5.00;;
20080;SDS011;10200;49.232;9.222;2023-06-10T06:30:56;8.23;;;4.97;;
20080;SDS011;10200;49.232;9.222;2023-06-10T06:33:22;5.45;;;4.95;;
20080;SDS011;10200;49.232;9.222;2023-06-10T06:35:48;6.47;;;4.38;;
20080;SDS011;10200;49.232;9.222;2023-06-10T06:38:13;12.73;;;4.70;;
20080;SDS011;10200;49.232;9.222;2023-06-10T06:40:39;5.68;;;5.18;;
20080;SDS011;10200;49.232;9.222;2023-06-10T06:43:05;5.30;;;4.40;;
20080;SDS011;10200;49.232;9.222;2023-06-10T06:45:30;5.40;;;4.85;;
20080;SDS011;10200;49.232;9.222;2023-06-10T06:47:58;6.00;;;4.63;;
20080;SDS011;10200;49.232;9.222;2023-06-10T06:50:24;6.90;;;4.88;;
20080;SDS011;10200;49.232;9.222;2023-06-10T06:52:50;6.30;;;4.55;;
20080;SDS011;10200;49.232;9.222;2023-06-10T06:55:16;4.60;;;4.20;;
20080;SDS011;10200;49.232;9.222;2023-06-10T06:57:41;4.40;;;4.03;;
20080;SDS011;10200;49.232;9.222;2023-06-10T07:00:07;5.18;;;4.68;;
20080;SDS011;10200;49.232;9.222;2023-06-10T07:02:34;5.20;;;4.50;;
20080;SDS011;10200;49.232;9.222;2023-06-10T07:05:00;4.82;;;4.38;;
20080;SDS011;10200;49.232;9.222;2023-06-10T07:07:26;4.15;;;3.78;;
20080;SDS011;10200;49.232;9.222;2023-06-10T07:09:52;4.90;;;4.40;;
20080;SDS011;10200;49.232;9.222;2023-06-10T07:12:17;5.95;;;4.95;;
20080;SDS011;10200;49.232;9.222;2023-06-10T07:14:43;6.07;;;4.47;;
20080;SDS011;10200;49.232;9.222;2023-06-10T07:17:09;4.68;;;4.28;;
20080;SDS011;10200;49.232;9.222;2023-06-10T07:19:35;5.47;;;4.45;;
20080;SDS011;10200;49.232;9.222;2023-06-10T07:22:00;4.55;;;4.20;;
20080;SDS011;10200;49.232;9.222;2023-06-10T07:24:26;7.03;;;4.78;;
20080;SDS011;10200;49.232;9.222;2023-06-10T07:26:51;5.75;;;4.15;;
20080;SDS011;10200;49.232;9.222;2023-06-10T07:29:17;4.80;;;4.15;;
20080;SDS011;10200;49.232;9.222;2023-06-10T07:31:43;9.15;;;4.20;;
20080;SDS011;10200;49.232;9.222;2023-06-10T07:34:08;8.48;;;3.92;;
20080;SDS011;10200;49.232;9.222;2023-06-10T07:36:34;4.47;;;4.05;;
20080;SDS011;10200;49.232;9.222;2023-06-10T07:38:59;4.53;;;4.13;;
20080;SDS011;10200;49.232;9.222;2023-06-10T07:41:25;4.85;;;4.30;;
20080;SDS011;10200;49.232;9.222;2023-06-10T07:43:53;4.15;;;3.75;;
20080;SDS011;10200;49.232;9.222;2023-06-10T07:46:22;6.22;;;4.03;;
20080;SDS011;10200;49.232;9.222;2023-06-10T07:48:48;5.32;;;4.82;;
20080;SDS011;10200;49.232;9.222;2023-06-10T07:51:17;4.53;;;3.90;;
20080;SDS011;10200;49.232;9.222;2023-06-10T07:53:42;4.22;;;3.83;;
20080;SDS011;10200;49.232;9.222;2023-06-10T07:56:08;4.28;;;3.88;;
20080;SDS011;10200;49.232;9.222;2023-06-10T07:58:33;5.00;;;4.25;;
20080;SDS011;10200;49.232;9.222;2023-06-10T08:00:59;4.03;;;3.63;;
20080;SDS011;10200;49.232;9.222;2023-06-10T08:03:25;4.28;;;3.80;;
20080;SDS011;10200;49.232;9.222;2023-06-10T08:05:50;4.25;;;3.85;;
20080;SDS011;10200;49.232;9.222;2023-06-10T08:08:16;6.43;;;3.80;;
20080;SDS011;10200;49.232;9.222;2023-06-10T08:10:41;5.65;;;4.30;;
20080;SDS011;10200;49.232;9.222;2023-06-10T08:13:07;5.07;;;4.25;;
20080;SDS011;10200;49.232;9.222;2023-06-10T08:15:33;5.20;;;3.40;;
20080;SDS011;10200;49.232;9.222;2023-06-10T08:17:59;4.60;;;3.88;;
20080;SDS011;10200;49.232;9.222;2023-06-10T08:20:24;5.07;;;3.92;;
20080;SDS011;10200;49.232;9.222;2023-06-10T08:22:51;4.97;;;3.53;;
20080;SDS011;10200;49.232;9.222;2023-06-10T08:25:16;5.22;;;4.40;;
20080;SDS011;10200;49.232;9.222;2023-06-10T08:27:42;4.88;;;4.47;;
20080;SDS011;10200;49.232;9.222;2023-06-10T08:30:08;4.57;;;4.10;;
20080;SDS011;10200;49.232;9.222;2023-06-10T08:32:35;4.97;;;4.00;;
20080;SDS011;10200;49.232;9.222;2023-06-10T08:35:01;4.60;;;4.20;;
20080;SDS011;10200;49.232;9.222;2023-06-10T08:37:28;4.03;;;3.67;;
20080;SDS011;10200;49.232;9.222;2023-06-10T08:39:54;4.15;;;3.75;;
20080;SDS011;10200;49.232;9.222;2023-06-10T08:44:46;4.13;;;3.72;;
20080;SDS011;10200;49.232;9.222;2023-06-10T08:47:16;4.35;;;3.95;;
20080;SDS011;10200;49.232;9.222;2023-06-10T08:49:46;3.95;;;3.65;;
20080;SDS011;10200;49.232;9.222;2023-06-10T08:52:16;4.50;;;4.10;;
20080;SDS011;10200;49.232;9.222;2023-06-10T08:54:43;4.53;;;3.92;;
20080;SDS011;10200;49.232;9.222;2023-06-10T08:57:21;7.25;;;4.18;;
20080;SDS011;10200;49.232;9.222;2023-06-10T08:59:48;3.90;;;3.35;;
20080;SDS011;10200;49.232;9.222;2023-06-10T09:02:14;6.40;;;4.95;;
20080;SDS011;10200;49.232;9.222;2023-06-10T09:04:43;4.82;;;4.30;;
20080;SDS011;10200;49.232;9.222;2023-06-10T09:07:10;3.88;;;3.58;;
20080;SDS011;10200;49.232;9.222;2023-06-10T09:09:37;4.35;;;3.25;;
20080;SDS011;10200;49.232;9.222;2023-06-10T09:12:03;4.20;;;3.80;;
20080;SDS011;10200;49.232;9.222;2023-06-10T09:14:29;5.93;;;4.72;;
20080;SDS011;10200;49.232;9.222;2023-06-10T09:16:55;4.25;;;3.65;;
20080;SDS011;10200;49.232;9.222;2023-06-10T09:19:23;3.50;;;3.20;;
20080;SDS011;10200;49.232;9.222;2023-06-10T09:21:51;4.35;;;3.28;;
20080;SDS011;10200;49.232;9.222;2023-06-10T09:24:17;6.45;;;3.50;;
20080;SDS011;10200;49.232;9.222;2023-06-10T09:26:43;4.18;;;3.55;;
20080;SDS011;10200;49.232;9.222;2023-06-10T09:29:10;3.83;;;3.40;;
20080;SDS011;10200;49.232;9.222;2023-06-10T09:31:37;3.85;;;2.90;;
20080;SDS011;10200;49.232;9.222;2023-06-10T09:34:11;4.20;;;3.15;;
20080;SDS011;10200;49.232;9.222;2023-06-10T09:36:38;4.50;;;3.72;;
20080;SDS011;10200;49.232;9.222;2023-06-10T09:39:04;3.47;;;3.17;;
20080;SDS011;10200;49.232;9.222;2023-06-10T09:41:40;5.88;;;3.38;;
20080;SDS011;10200;49.232;9.222;2023-06-10T09:44:39;4.03;;;3.55;;
20080;SDS011;10200;49.232;9.222;2023-06-10T09:46:58;3.70;;;3.40;;
20080;SDS011;10200;49.232;9.222;2023-06-10T09:49:24;4.18;;;3.70;;
20080;SDS011;10200;49.232;9.222;2023-06-10T09:51:54;3.45;;;3.15;;
20080;SDS011;10200;49.232;9.222;2023-06-10T09:54:20;6.18;;;3.75;;
20080;SDS011;10200;49.232;9.222;2023-06-10T09:56:47;3.45;;;3.20;;
20080;SDS011;10200;49.232;9.222;2023-06-10T09:59:13;4.22;;;3.38;;
20080;SDS011;10200;49.232;9.222;2023-06-10T10:01:39;3.70;;;3.40;;
20080;SDS011;10200;49.232;9.222;2023-06-10T10:04:05;3.88;;;2.80;;
20080;SDS011;10200;49.232;9.222;2023-06-10T10:06:31;4.18;;;3.03;;
20080;SDS011;10200;49.232;9.222;2023-06-10T10:08:57;3.33;;;3.03;;
20080;SDS011;10200;49.232;9.222;2023-06-10T10:11:23;4.28;;;3.03;;
20080;SDS011;10200;49.232;9.222;2023-06-10T10:13:51;8.27;;;3.40;;
20080;SDS011;10200;49.232;9.222;2023-06-10T10:16:18;4.93;;;3.58;;
20080;SDS011;10200;49.232;9.222;2023-06-10T10:18:51;3.60;;;3.30;;
20080;SDS011;10200;49.232;9.222;2023-06-10T10:21:21;3.50;;;3.20;;
20080;SDS011;10200;49.232;9.222;2023-06-10T10:23:53;4.18;;;3.72;;
20080;SDS011;10200;49.232;9.222;2023-06-10T10:26:50;4.05;;;3.75;;
20080;SDS011;10200;49.232;9.222;2023-06-10T10:29:22;3.88;;;3.50;;
20080;SDS011;10200;49.232;9.222;2023-06-10T10:31:54;4.90;;;4.32;;
20080;SDS011;10200;49.232;9.222;2023-06-10T10:34:25;4.78;;;3.60;;
20080;SDS011;10200;49.232;9.222;2023-06-10T10:37:00;3.33;;;2.95;;
20080;SDS011;10200;49.232;9.222;2023-06-10T10:39:26;3.38;;;3.08;;
20080;SDS011;10200;49.232;9.222;2023-06-10T10:41:53;3.42;;;3.13;;
20080;SDS011;10200;49.232;9.222;2023-06-10T10:44:20;5.78;;;3.40;;
20080;SDS011;10200;49.232;9.222;2023-06-10T10:46:50;4.05;;;2.92;;
20080;SDS011;10200;49.232;9.222;2023-06-10T10:49:17;3.72;;;3.03;;
20080;SDS011;10200;49.232;9.222;2023-06-10T10:54:30;5.75;;;3.78;;
20080;SDS011;10200;49.232;9.222;2023-06-10T10:59:51;3.47;;;2.55;;
20080;SDS011;10200;49.232;9.222;2023-06-10T11:02:33;3.40;;;3.10;;
20080;SDS011;10200;49.232;9.222;2023-06-10T11:05:05;3.40;;;3.10;;
20080;SDS011;10200;49.232;9.222;2023-06-10T11:07:32;4.38;;;3.67;;
20080;SDS011;10200;49.232;9.222;2023-06-10T11:10:08;2.97;;;2.75;;
20080;SDS011;10200;49.232;9.222;2023-06-10T11:15:13;3.47;;;3.17;;
20080;SDS011;10200;49.232;9.222;2023-06-10T11:26:12;3.72;;;3.42;;
20080;SDS011;10200;49.232;9.222;2023-06-10T11:28:41;6.32;;;3.45;;
20080;SDS011;10200;49.232;9.222;2023-06-10T11:31:18;5.18;;;3.15;;
20080;SDS011;10200;49.232;9.222;2023-06-10T11:33:45;4.22;;;3.83;;
20080;SDS011;10200;49.232;9.222;2023-06-10T11:36:12;4.88;;;3.22;;
20080;SDS011;10200;49.232;9.222;2023-06-10T11:38:39;3.80;;;3.50;;
20080;SDS011;10200;49.232;9.222;2023-06-10T11:41:06;5.63;;;3.30;;
20080;SDS011;10200;49.232;9.222;2023-06-10T11:43:32;4.38;;;3.00;;
20080;SDS011;10200;49.232;9.222;2023-06-10T11:45:58;4.40;;;3.33;;
20080;SDS011;10200;49.232;9.222;2023-06-10T11:48:25;3.97;;;3.58;;
20080;SDS011;10200;49.232;9.222;2023-06-10T11:50:53;3.90;;;3.60;;
20080;SDS011;10200;49.232;9.222;2023-06-10T11:53:19;3.47;;;3.17;;
20080;SDS011;10200;49.232;9.222;2023-06-10T11:55:45;3.67;;;2.95;;
20080;SDS011;10200;49.232;9.222;2023-06-10T11:58:21;3.63;;;2.90;;
20080;SDS011;10200;49.232;9.222;2023-06-10T12:00:48;2.67;;;2.42;;
20080;SDS011;10200;49.232;9.222;2023-06-10T12:03:15;6.93;;;3.35;;
20080;SDS011;10200;49.232;9.222;2023-06-10T12:05:54;2.88;;;2.63;;
20080;SDS011;10200;49.232;9.222;2023-06-10T12:08:26;2.63;;;2.42;;
20080;SDS011;10200;49.232;9.222;2023-06-10T12:10:53;2.42;;;2.22;;
20080;SDS011;10200;49.232;9.222;2023-06-10T12:13:18;3.08;;;2.22;;
20080;SDS011;10200;49.232;9.222;2023-06-10T12:15:45;3.17;;;2.80;;
20080;SDS011;10200;49.232;9.222;2023-06-10T12:18:17;3.03;;;2.83;;
20080;SDS011;10200;49.232;9.222;2023-06-10T12:20:44;2.58;;;2.28;;
20080;SDS011;10200;49.232;9.222;2023-06-10T12:23:12;2.55;;;2.20;;
20080;SDS011;10200;49.232;9.222;2023-06-10T12:25:38;2.97;;;2.60;;
20080;SDS011;10200;49.232;9.222;2023-06-10T12:28:04;2.65;;;2.45;;
20080;SDS011;10200;49.232;9.222;2023-06-10T12:30:31;4.00;;;2.50;;
20080;SDS011;10200;49.232;9.222;2023-06-10T12:32:57;2.53;;;2.33;;
20080;SDS011;10200;49.232;9.222;2023-06-10T12:35:27;4.22;;;2.92;;
20080;SDS011;10200;49.232;9.222;2023-06-10T12:38:00;2.95;;;2.65;;
20080;SDS011;10200;49.232;9.222;2023-06-10T12:40:28;2.90;;;2.63;;
20080;SDS011;10200;49.232;9.222;2023-06-10T12:42:54;3.35;;;2.83;;
20080;SDS011;10200;49.232;9.222;2023-06-10T12:45:37;2.63;;;2.42;;
20080;SDS011;10200;49.232;9.222;2023-06-10T12:50:42;3.78;;;2.53;;
20080;SDS011;10200;49.232;9.222;2023-06-10T12:53:08;3.38;;;2.35;;
20080;SDS011;10200;49.232;9.222;2023-06-10T12:55:38;3.20;;;2.85;;
20080;SDS011;10200;49.232;9.222;2023-06-10T12:58:04;2.90;;;2.70;;
20080;SDS011;10200;49.232;9.222;2023-06-10T13:00:30;2.88;;;2.60;;
20080;SDS011;10200;49.232;9.222;2023-06-10T13:02:56;4.80;;;2.50;;
20080;SDS011;10200;49.232;9.222;2023-06-10T13:05:25;3.03;;;2.72;;
20080;SDS011;10200;49.232;9.222;2023-06-10T13:07:51;12.55;;;4.32;;
20080;SDS011;10200;49.232;9.222;2023-06-10T13:10:17;7.13;;;3.08;;
20080;SDS011;10200;49.232;9.222;2023-06-10T13:12:43;5.53;;;3.03;;
20080;SDS011;10200;49.232;9.222;2023-06-10T13:15:09;2.75;;;2.17;;
20080;SDS011;10200;49.232;9.222;2023-06-10T13:17:36;2.72;;;2.53;;
20080;SDS011;10200;49.232;9.222;2023-06-10T13:20:03;2.92;;;2.70;;
20080;SDS011;10200;49.232;9.222;2023-06-10T13:22:32;2.50;;;2.30;;
20080;SDS011;10200;49.232;9.222;2023-06-10T13:24:59;3.28;;;2.38;;
20080;SDS011;10200;49.232;9.222;2023-06-10T13:27:29;2.63;;;2.42;;
20080;SDS011;10200;49.232;9.222;2023-06-10T13:29:55;2.92;;;2.70;;
20080;SDS011;10200;49.232;9.222;2023-06-10T13:32:20;2.67;;;2.47;;
20080;SDS011;10200;49.232;9.222;2023-06-10T13:34:46;3.25;;;2.60;;
20080;SDS011;10200;49.232;9.222;2023-06-10T13:37:14;2.88;;;2.58;;
20080;SDS011;10200;49.232;9.222;2023-06-10T13:39:42;3.92;;;2.80;;
20080;SDS011;10200;49.232;9.222;2023-06-10T13:42:07;3.00;;;2.65;;
20080;SDS011;10200;49.232;9.222;2023-06-10T13:44:34;5.55;;;2.50;;
20080;SDS011;10200;49.232;9.222;2023-06-10T13:47:01;3.03;;;2.60;;
20080;SDS011;10200;49.232;9.222;2023-06-10T13:49:27;2.60;;;2.40;;
20080;SDS011;10200;49.232;9.222;2023-06-10T13:51:53;3.22;;;2.75;;
20080;SDS011;10200;49.232;9.222;2023-06-10T13:54:19;4.18;;;2.50;;
20080;SDS011;10200;49.232;9.222;2023-06-10T13:56:46;3.13;;;2.72;;
20080;SDS011;10200;49.232;9.222;2023-06-10T13:59:11;3.17;;;2.83;;
20080;SDS011;10200;49.232;9.222;2023-06-10T14:01:37;2.63;;;2.42;;
20080;SDS011;10200;49.232;9.222;2023-06-10T14:04:03;3.42;;;2.85;;
20080;SDS011;10200;49.232;9.222;2023-06-10T14:06:29;2.80;;;2.60;;
20080;SDS011;10200;49.232;9.222;2023-06-10T14:08:55;3.80;;;2.30;;
20080;SDS011;10200;49.232;9.222;2023-06-10T14:11:21;2.78;;;2.50;;
20080;SDS011;10200;49.232;9.222;2023-06-10T14:13:47;3.65;;;2.58;;
20080;SDS011;10200;49.232;9.222;2023-06-10T14:16:12;3.13;;;2.88;;
20080;SDS011;10200;49.232;9.222;2023-06-10T14:18:38;3.65;;;2.72;;
20080;SDS011;10200;49.232;9.222;2023-06-10T14:21:03;3.03;;;2.83;;
20080;SDS011;10200;49.232;9.222;2023-06-10T14:23:29;2.63;;;2.42;;
20080;SDS011;10200;49.232;9.222;2023-06-10T14:25:55;3.72;;;2.63;;
20080;SDS011;10200;49.232;9.222;2023-06-10T14:28:21;2.50;;;2.30;;
20080;SDS011;10200;49.232;9.222;2023-06-10T14:30:46;2.83;;;2.42;;
20080;SDS011;10200;49.232;9.222;2023-06-10T14:33:12;2.97;;;2.78;;
20080;SDS011;10200;49.232;9.222;2023-06-10T14:35:37;4.07;;;2.75;;
20080;SDS011;10200;49.232;9.222;2023-06-10T14:38:03;3.58;;;3.28;;
20080;SDS011;10200;49.232;9.222;2023-06-10T14:40:29;2.80;;;2.60;;
20080;SDS011;10200;49.232;9.222;2023-06-10T14:42:56;2.58;;;2.33;;
20080;SDS011;10200;49.232;9.222;2023-06-10T14:45:22;2.78;;;2.40;;
20080;SDS011;10200;49.232;9.222;2023-06-10T14:47:48;4.18;;;3.00;;
20080;SDS011;10200;49.232;9.222;2023-06-10T14:50:13;2.60;;;2.40;;
20080;SDS011;10200;49.232;9.222;2023-06-10T14:52:39;2.65;;;2.45;;
20080;SDS011;10200;49.232;9.222;2023-06-10T14:55:05;3.15;;;2.95;;
20080;SDS011;10200;49.232;9.222;2023-06-10T14:57:31;2.40;;;2.17;;
20080;SDS011;10200;49.232;9.222;2023-06-10T14:59:57;3.22;;;2.97;;
20080;SDS011;10200;49.232;9.222;2023-06-10T15:02:23;3.58;;;3.28;;
20080;SDS011;10200;49.232;9.222;2023-06-10T15:04:48;2.88;;;2.60;;
20080;SDS011;10200;49.232;9.222;2023-06-10T15:07:14;3.60;;;2.92;;
20080;SDS011;10200;49.232;9.222;2023-06-10T15:09:40;2.65;;;2.45;;
20080;SDS011;10200;49.232;9.222;2023-06-10T15:12:07;2.63;;;2.42;;
20080;SDS011;10200;49.232;9.222;2023-06-10T15:14:33;4.00;;;2.28;;
20080;SDS011;10200;49.232;9.222;2023-06-10T15:16:59;4.63;;;3.30;;